Saturday, January 20, 2018, 3:01 PM GMT
Back to Local

CYYY, Mont Joli, Que.

Location: , , Canada Lat: 48.6
Local Time: 3:01 PM GMT (15:01 GMT) Lon: -68.217
Time Zone: GMT Elev: 157 ft

Show me the last for .
Show Decoded

2018-01-20 14:22 METAR CYYY 201422Z 21013G25KT 10SM FEW015 BKN050 OVC070 M01/M03 A2920 RMK
                 SC2SC3AC3 SLP892 =
2018-01-20 14:00 METAR CYYY 201400Z 22012G19KT 6SM -SN DRSN FEW015 SCT025 BKN040 OVC070 M01/M03
                 A2920 RMK SC2SC2SC2AC2 /S01/ SLP893 =
2018-01-20 13:53 METAR CYYY 201353Z 22012G21KT 6SM -SN DRSN SCT025 BKN040 OVC070 M01/M03 A2920
                 RMK SC4SC2AC2 SLP894 =
2018-01-20 13:47 METAR CYYY 201347Z 22015G22KT 1 1/2SM R06/5000VP6000FT/U -SN DRSN OVC025 M01/M03
                 A2920 RMK SN4SC4 SLP893 =
2018-01-20 13:16 METAR CYYY 201316Z 22015G22KT 1/2SM R06/5000VP6000FT/D SN DRSN VV010 M02/M03
                 A2921 RMK SN8 SLP897 =
2018-01-20 13:03 METAR CYYY 201303Z 21014G20KT 1SM R06/P6000FT/D -SN DRSN VV016 M01/M04 A2921 RMK
                 SN8 SLP896 =
2018-01-20 13:00 METAR CYYY 201300Z 22013G25KT 3SM -SN DRSN VV016 M01/M04 A2921 RMK SN8 SLP897 =
2018-01-20 12:39 METAR CYYY 201239Z 22011G21KT 6SM -SN DRSN BKN025 OVC065 M02/M04 A2922 RMK
                 SC5SC3 SLP899 =
2018-01-20 12:24 METAR CYYY 201224Z 21011G18KT 2SM -SN DRSN OVC022 M02/M04 A2923 RMK SC8 SLP902 =
2018-01-20 12:00 METAR CYYY 201200Z 22013G19KT 1 1/4SM -SN DRSN OVC025 M02/M04 A2924 RMK SC8
                 /S02/ SLP908 =
2018-01-20 11:29 METAR CYYY 201129Z 21012G20KT 3SM -SN BLSN OVC030 M02/M04 A2926 RMK SC8 SLP912 =
2018-01-20 11:09 METAR CYYY 201109Z 21012G18KT 2SM -SN BLSN FEW015 OVC025 M02/M04 A2926 RMK
                 SC2SC6 PRESFR SLP913 =
2018-01-20 11:00 METAR CYYY 201100Z 22008G17KT 1 3/4SM -SN BLSN FEW013 OVC025 M02/M04 A2928 RMK
                 SF1SC7 SLP919 =
2018-01-20 10:47 METAR CYYY 201047Z 20012KT 1 1/2SM -SN BLSN FEW010 OVC022 M02/M04 A2927 RMK
                 SF2SC6 SLP918 =
2018-01-20 10:00 METAR CYYY 201000Z 18012KT 1 1/4SM -SN BLSN VV014 M03/M04 A2929 RMK SN8 SLP923 =
2018-01-20 09:16 METAR CYYY 200916Z 17010KT 1SM R06/4500VP6000FT/D -SN BLSN VV014 M03/M04 A2934
                 RMK SN8 PRESFR SLP941 =
2018-01-20 09:00 METAR CYYY 200900Z 17014G20KT 1 1/4SM -SN BLSN VV015 M03/M04 A2937 RMK SN8 /S01/
                 PRESFR SLP950 =
2018-01-20 08:57 METAR CYYY 200857Z 18014G20KT 1 1/4SM -SN BLSN VV015 M03/M04 A2937 RMK SN8
                 PRESFR SLP952 =
2018-01-20 08:49 METAR CYYY 200849Z 18014KT 1 3/4SM -SN BLSN VV015 M03/M05 A2938 RMK SN8 PRESFR
                 SLP955 =
2018-01-20 08:00 METAR CYYY 200800Z 20012G20KT 2 1/2SM -SN OVC030 M02/M05 A2945 RMK SC8 SLP977 =
2018-01-20 07:21 METAR CYYY 200721Z 19016G22KT 2 1/2SM -SN OVC022 M02/M05 A2947 RMK SC8 SLP984 =
2018-01-20 07:00 METAR CYYY 200700Z 22009G21KT 10SM -SN OVC024 M02/M06 A2948 RMK SC8 SLP986 =
2018-01-20 06:00 METAR CYYY 200600Z 18007KT 4SM -SN OVC025 M03/M06 A2951 RMK SC8 /S01/ PRESFR
                 SLP998 =
2018-01-20 05:00 METAR CYYY 200500Z 19009KT 3SM -SN OVC024 M04/M06 A2956 RMK SC8 PRESFR SLP014 =
2018-01-20 04:00 METAR CYYY 200400Z 18004KT 4SM -SN OVC021 M05/M07 A2962 RMK SC8 SLP034 =
2018-01-20 03:37 METAR CYYY 200337Z 17002KT 3SM -SN OVC020 M06/M07 A2961 RMK SC8 SLP033 =
2018-01-20 03:32 METAR CYYY 200332Z 18002KT 2SM -SN OVC020 M07/M07 A2962 RMK SC8 SLP034 =
2018-01-20 03:00 METAR CYYY 200300Z 07002KT 1 3/4SM -SN OVC024 M08/M09 A2963 RMK SC8 SLP039 =
2018-01-20 02:00 METAR CYYY 200200Z VRB02KT 1 3/4SM -SN OVC015 M09/M11 A2969 RMK SC8 SLP058 =
2018-01-20 01:53 METAR CYYY 200153Z 00000KT 1 3/4SM -SN OVC015 M09/M11 A2969 RMK SC8 SLP061 =
2018-01-20 01:51 METAR CYYY 200151Z 00000KT 2 1/2SM -SN OVC016 M09/M11 A2969 RMK SC8 SLP061 =
2018-01-20 01:00 METAR CYYY 200100Z 12004KT 15SM -SN OVC016 M10/M12 A2972 RMK SC8 SLP069 =
2018-01-20 00:00 METAR CYYY 200000Z 08005KT 15SM -SN OVC016 M11/M13 A2973 RMK SC8 SLP075 =
2018-01-19 23:00 METAR CYYY 192300Z 09006KT 15SM -SN OVC015 M11/M14 A2975 RMK SC8 PRESFR SLP080 =
2018-01-19 22:00 METAR CYYY 192200Z 10006KT 15SM -SN OVC018 M11/M14 A2978 RMK SC8 SLP090 =
2018-01-19 21:00 METAR CYYY 192100Z 08004KT 15SM -SN OVC022 M11/M14 A2981 RMK SC8 SLP101 =
2018-01-19 20:15 METAR CYYY 192015Z 06005KT 15SM -SN OVC024 M11/M14 A2982 RMK SC8 SLP103 =
2018-01-19 20:00 METAR CYYY 192000Z 04007KT 15SM BKN024 OVC036 M11/M14 A2982 RMK SC5SC3 SLP104 =
2018-01-19 19:00 METAR CYYY 191900Z 07006KT 15SM OVC053 M12/M15 A2981 RMK SC8 SLP101 =
2018-01-19 18:00 METAR CYYY 191800Z 06005KT 15SM OVC045 M12/M16 A2984 RMK SC8 SLP110 =
2018-01-19 17:00 METAR CYYY 191700Z 03003KT 15SM OVC020 M12/M16 A2986 RMK SC8 SLP118 =
2018-01-19 16:00 METAR CYYY 191600Z 03006KT 15SM OVC018 M12/M15 A2988 RMK SC8 SLP126 =

Support USWX by starting your Amazon purchase here.